createdAt,value
2018-09-21T00:00:11.988Z,12.87
2018-09-21T00:02:39.276Z,10.90
2018-09-21T00:05:06.539Z,11.57
2018-09-21T00:07:34.036Z,12.57
2018-09-21T00:10:01.243Z,16.07
2018-09-21T00:12:28.503Z,10.70
2018-09-21T00:14:55.733Z,10.67
2018-09-21T00:17:22.953Z,11.23
2018-09-21T00:19:50.204Z,17.60
2018-09-21T00:22:17.463Z,12.00
2018-09-21T00:24:44.728Z,12.80
2018-09-21T00:27:11.964Z,12.73
2018-09-21T00:29:39.275Z,11.43
2018-09-21T00:32:06.513Z,14.83
2018-09-21T00:34:33.741Z,13.17
2018-09-21T00:37:00.950Z,11.50
2018-09-21T00:39:28.193Z,12.00
2018-09-21T00:41:55.446Z,12.10
2018-09-21T00:44:22.725Z,12.97
2018-09-21T00:46:49.958Z,12.40
2018-09-21T00:49:17.298Z,12.13
2018-09-21T00:51:44.572Z,13.57
2018-09-21T00:54:11.883Z,14.07
2018-09-21T00:56:39.141Z,14.23
2018-09-21T00:59:06.387Z,14.67
2018-09-21T01:01:33.633Z,15.20
2018-09-21T01:04:00.903Z,14.30
2018-09-21T01:06:28.088Z,14.90
2018-09-21T01:08:55.319Z,11.53
2018-09-21T01:11:22.527Z,14.77
2018-09-21T01:13:49.780Z,13.37
2018-09-21T01:16:16.993Z,14.40
2018-09-21T01:18:44.245Z,14.60
2018-09-21T01:21:11.526Z,12.07
2018-09-21T01:23:38.766Z,13.00
2018-09-21T01:26:05.967Z,13.60
2018-09-21T01:28:36.215Z,15.93
2018-09-21T01:31:03.477Z,15.93
2018-09-21T01:33:30.673Z,13.00
2018-09-21T01:35:58.164Z,13.50
2018-09-21T01:38:25.410Z,12.17
2018-09-21T01:40:52.647Z,13.57
2018-09-21T01:43:19.815Z,14.57
2018-09-21T01:45:47.122Z,11.70
2018-09-21T01:48:14.340Z,12.80
2018-09-21T01:50:41.661Z,12.47
2018-09-21T01:53:08.882Z,12.27
2018-09-21T01:55:36.094Z,13.83
2018-09-21T01:58:03.337Z,12.30
2018-09-21T02:00:30.588Z,13.50
2018-09-21T02:02:57.869Z,13.80
2018-09-21T02:05:25.097Z,12.37
2018-09-21T02:07:52.376Z,12.90
2018-09-21T02:10:22.421Z,14.77
2018-09-21T02:12:49.660Z,13.33
2018-09-21T02:15:16.929Z,12.47
2018-09-21T02:17:44.178Z,12.63
2018-09-21T02:20:11.403Z,14.23
2018-09-21T02:22:38.632Z,12.03
2018-09-21T02:25:05.912Z,12.97
2018-09-21T02:27:33.109Z,13.43
2018-09-21T02:30:00.366Z,15.17
2018-09-21T02:32:27.588Z,14.37
2018-09-21T02:34:54.783Z,13.63
2018-09-21T02:37:22.069Z,13.90
2018-09-21T02:39:49.323Z,14.27
2018-09-21T02:42:16.545Z,12.90
2018-09-21T02:44:43.718Z,12.57
2018-09-21T02:47:10.985Z,12.13
2018-09-21T02:49:38.228Z,16.23
2018-09-21T02:52:05.545Z,11.93
2018-09-21T02:54:32.785Z,10.87
2018-09-21T02:57:00.061Z,11.67
2018-09-21T02:59:27.342Z,11.60
2018-09-21T03:01:54.549Z,11.63
2018-09-21T03:04:21.794Z,11.90
2018-09-21T03:06:49.049Z,12.93
2018-09-21T03:09:16.508Z,13.57
2018-09-21T03:11:43.700Z,11.67
2018-09-21T03:14:10.929Z,14.17
2018-09-21T03:16:38.473Z,13.50
2018-09-21T03:19:05.672Z,13.77
2018-09-21T03:21:32.891Z,15.07
2018-09-21T03:24:00.172Z,13.70
2018-09-21T03:29:13.528Z,14.03
2018-09-21T03:31:40.753Z,14.63
2018-09-21T03:34:07.951Z,12.47
2018-09-21T03:36:35.176Z,12.97
2018-09-21T03:39:02.801Z,13.97
2018-09-21T03:41:30.012Z,12.73
2018-09-21T03:43:57.661Z,12.43
2018-09-21T03:46:24.904Z,11.33
2018-09-21T03:48:52.184Z,12.57
2018-09-21T03:51:19.443Z,11.90
2018-09-21T03:53:46.681Z,12.70
2018-09-21T03:56:13.856Z,12.37
2018-09-21T03:58:41.174Z,11.03
2018-09-21T04:01:08.483Z,12.53
2018-09-21T04:03:35.664Z,13.07
2018-09-21T04:06:02.901Z,14.40
2018-09-21T04:08:30.140Z,11.43
2018-09-21T04:10:57.360Z,17.27
2018-09-21T04:13:24.653Z,11.40
2018-09-21T04:15:51.877Z,12.47
2018-09-21T04:18:19.068Z,12.53
2018-09-21T04:20:46.309Z,13.20
2018-09-21T04:23:13.557Z,11.80
2018-09-21T04:25:40.748Z,13.20
2018-09-21T04:28:07.985Z,12.93
2018-09-21T04:30:35.181Z,12.53
2018-09-21T04:33:02.401Z,16.33
2018-09-21T04:35:32.996Z,14.80
2018-09-21T04:38:00.279Z,17.13
2018-09-21T04:40:27.457Z,15.97
2018-09-21T04:42:54.676Z,15.60
2018-09-21T04:45:21.920Z,14.50
2018-09-21T04:47:49.167Z,13.60
2018-09-21T04:50:16.697Z,15.80
2018-09-21T04:52:43.908Z,12.70
2018-09-21T04:55:11.194Z,14.40
2018-09-21T04:57:38.935Z,13.27
2018-09-21T05:00:06.656Z,15.13
2018-09-21T05:02:33.885Z,15.50
2018-09-21T05:05:01.194Z,18.13
2018-09-21T05:07:28.432Z,18.23
2018-09-21T05:09:55.666Z,16.27
2018-09-21T05:12:22.928Z,11.47
2018-09-21T05:14:50.156Z,14.90
2018-09-21T05:17:17.397Z,11.93
2018-09-21T05:19:44.588Z,12.87
2018-09-21T05:22:11.856Z,13.87
2018-09-21T05:24:39.092Z,13.87
2018-09-21T05:27:06.357Z,11.77
2018-09-21T05:29:33.640Z,15.77
2018-09-21T05:32:00.857Z,14.63
2018-09-21T05:34:28.166Z,13.47
2018-09-21T05:36:55.303Z,13.57
2018-09-21T05:39:22.552Z,11.33
2018-09-21T05:41:49.807Z,10.67
2018-09-21T05:44:17.261Z,13.47
2018-09-21T05:46:44.484Z,10.47
2018-09-21T05:49:11.698Z,13.50
2018-09-21T05:51:38.958Z,16.27
2018-09-21T05:54:06.233Z,11.93
2018-09-21T05:56:34.036Z,11.17
2018-09-21T05:59:01.250Z,12.17
2018-09-21T06:01:28.486Z,17.77
2018-09-21T06:03:55.740Z,10.60
2018-09-21T06:06:23.105Z,11.20
2018-09-21T06:08:50.399Z,11.60
2018-09-21T06:11:17.640Z,11.20
2018-09-21T06:13:45.690Z,13.20
2018-09-21T06:16:12.881Z,11.90
2018-09-21T06:18:40.234Z,15.50
2018-09-21T06:21:07.596Z,13.63
2018-09-21T06:23:34.816Z,13.07
2018-09-21T06:26:02.040Z,12.63
2018-09-21T06:28:29.293Z,11.40
2018-09-21T06:30:56.540Z,12.77
2018-09-21T06:33:23.772Z,11.70
2018-09-21T06:35:50.999Z,13.50
2018-09-21T06:38:18.278Z,14.07
2018-09-21T06:40:45.505Z,13.93
2018-09-21T06:43:12.706Z,12.47
2018-09-21T06:45:39.958Z,14.17
2018-09-21T06:48:07.263Z,14.00
2018-09-21T06:50:34.497Z,14.50
2018-09-21T06:53:01.768Z,17.53
2018-09-21T06:55:28.987Z,14.03
2018-09-21T06:57:56.201Z,17.12
2018-09-21T07:00:23.441Z,15.90
2018-09-21T07:02:50.648Z,13.58
2018-09-21T07:05:18.148Z,20.95
2018-09-21T07:07:45.586Z,17.60
2018-09-21T07:10:13.304Z,14.50
2018-09-21T07:12:40.876Z,14.40
2018-09-21T07:15:08.558Z,14.58
2018-09-21T07:17:36.335Z,16.65
2018-09-21T07:20:03.619Z,16.82
2018-09-21T07:22:30.920Z,12.23
2018-09-21T07:24:58.191Z,13.13
2018-09-21T07:27:25.457Z,12.18
2018-09-21T07:29:52.720Z,11.60
2018-09-21T07:32:19.962Z,13.03
2018-09-21T07:34:47.273Z,10.85
2018-09-21T07:37:14.538Z,10.15
2018-09-21T07:39:41.766Z,14.00
2018-09-21T07:42:09.058Z,8.98
2018-09-21T07:44:38.351Z,8.45
2018-09-21T07:47:05.529Z,10.93
2018-09-21T07:49:32.744Z,7.50
2018-09-21T07:51:59.925Z,7.33
2018-09-21T07:54:27.373Z,9.18
2018-09-21T07:56:54.548Z,8.03
2018-09-21T07:59:21.853Z,7.75
2018-09-21T08:01:49.097Z,8.83
2018-09-21T08:04:16.340Z,9.50
2018-09-21T08:06:43.553Z,7.80
2018-09-21T08:09:11.378Z,7.22
2018-09-21T08:11:38.688Z,6.87
2018-09-21T08:14:06.413Z,7.72
2018-09-21T08:16:34.402Z,6.83
2018-09-21T08:19:01.712Z,7.47
2018-09-21T08:21:28.976Z,8.98
2018-09-21T08:23:56.259Z,11.68
2018-09-21T08:26:23.505Z,7.50
2018-09-21T08:28:50.738Z,7.47
2018-09-21T08:31:17.968Z,8.10
2018-09-21T08:33:45.196Z,7.17
2018-09-21T08:36:12.440Z,8.53
2018-09-21T08:38:39.685Z,8.75
2018-09-21T08:41:06.948Z,6.10
2018-09-21T08:43:34.158Z,6.33
2018-09-21T08:46:01.657Z,6.47
2018-09-21T08:48:28.960Z,6.08
2018-09-21T08:50:56.181Z,9.03
2018-09-21T08:53:23.433Z,7.60
2018-09-21T08:55:50.873Z,7.62
2018-09-21T08:58:18.115Z,5.70
2018-09-21T09:00:45.435Z,8.23
2018-09-21T09:03:12.746Z,8.25
2018-09-21T09:05:39.926Z,12.35
2018-09-21T09:08:07.174Z,6.15
2018-09-21T09:10:34.377Z,7.67
2018-09-21T09:13:01.658Z,5.53
2018-09-21T09:15:28.862Z,4.80
2018-09-21T09:17:56.148Z,6.80
2018-09-21T09:20:23.330Z,8.53
2018-09-21T09:22:50.544Z,6.05
2018-09-21T09:25:17.803Z,5.20
2018-09-21T09:27:45.064Z,8.33
2018-09-21T09:30:12.582Z,6.72
2018-09-21T09:32:39.752Z,5.45
2018-09-21T09:35:07.008Z,5.47
2018-09-21T09:37:34.233Z,6.78
2018-09-21T09:40:03.298Z,7.12
2018-09-21T09:42:30.545Z,5.47
2018-09-21T09:44:57.783Z,5.95
2018-09-21T09:47:25.054Z,7.65
2018-09-21T09:49:52.352Z,9.20
2018-09-21T09:52:19.636Z,6.65
2018-09-21T09:54:46.954Z,5.70
2018-09-21T09:57:14.175Z,6.10
2018-09-21T09:59:41.420Z,5.92
2018-09-21T10:02:08.662Z,7.47
2018-09-21T10:04:35.922Z,12.30
2018-09-21T10:07:03.222Z,6.50
2018-09-21T10:09:30.485Z,6.62
2018-09-21T10:11:57.716Z,7.67
2018-09-21T10:14:24.968Z,6.33
2018-09-21T10:16:52.169Z,7.00
2018-09-21T10:19:19.414Z,6.35
2018-09-21T10:21:46.628Z,7.35
2018-09-21T10:24:14.000Z,9.18
2018-09-21T10:26:41.105Z,6.80
2018-09-21T10:29:08.317Z,8.33
2018-09-21T10:31:35.645Z,6.28
2018-09-21T10:34:02.953Z,9.90
2018-09-21T10:36:30.316Z,5.72
2018-09-21T10:38:57.557Z,8.05
2018-09-21T10:41:24.972Z,6.62
2018-09-21T10:43:52.201Z,5.45
2018-09-21T10:46:19.407Z,5.92
2018-09-21T10:48:46.840Z,9.70
2018-09-21T10:51:14.089Z,6.92
2018-09-21T10:53:41.309Z,7.22
2018-09-21T10:56:08.604Z,5.03
2018-09-21T10:58:35.874Z,6.00
2018-09-21T11:01:03.352Z,9.08
2018-09-21T11:03:30.582Z,9.28
2018-09-21T11:05:57.820Z,5.37
2018-09-21T11:08:25.073Z,6.22
2018-09-21T11:10:52.321Z,5.85
2018-09-21T11:13:19.570Z,5.47
2018-09-21T11:15:46.813Z,8.85
2018-09-21T11:18:14.132Z,5.60
2018-09-21T11:20:41.396Z,7.53
2018-09-21T11:23:08.638Z,9.05
2018-09-21T11:25:35.900Z,6.40
2018-09-21T11:28:03.148Z,5.20
2018-09-21T11:30:30.360Z,4.58
2018-09-21T11:32:58.353Z,4.50
2018-09-21T11:35:25.610Z,5.95
2018-09-21T11:37:52.888Z,6.87
2018-09-21T11:40:20.157Z,4.80
2018-09-21T11:42:47.425Z,4.65
2018-09-21T11:45:14.662Z,6.78
2018-09-21T11:47:41.982Z,5.35
2018-09-21T11:50:09.232Z,5.95
2018-09-21T11:52:36.489Z,6.70
2018-09-21T11:55:03.746Z,6.25
2018-09-21T11:57:30.987Z,7.42
2018-09-21T11:59:58.237Z,4.83
2018-09-21T12:02:25.491Z,4.58
2018-09-21T12:04:52.748Z,6.45
2018-09-21T12:07:20.008Z,9.45
2018-09-21T12:09:47.313Z,7.05
2018-09-21T12:12:14.563Z,6.65
2018-09-21T12:14:41.849Z,6.12
2018-09-21T12:17:09.168Z,8.78
2018-09-21T12:19:36.370Z,5.78
2018-09-21T12:22:03.652Z,5.12
2018-09-21T12:24:30.952Z,9.88
2018-09-21T12:26:58.225Z,5.47
2018-09-21T12:29:25.492Z,5.47
2018-09-21T12:31:52.787Z,6.53
2018-09-21T12:34:20.118Z,7.08
2018-09-21T12:36:47.411Z,4.53
2018-09-21T12:39:14.773Z,4.90
2018-09-21T12:41:42.320Z,4.92
2018-09-21T12:44:10.252Z,4.78
2018-09-21T12:46:37.575Z,5.37
2018-09-21T12:49:05.070Z,5.20
2018-09-21T12:51:32.709Z,4.70
2018-09-21T12:53:59.968Z,5.78
2018-09-21T12:56:27.347Z,7.72
2018-09-21T12:58:54.930Z,5.25
2018-09-21T13:01:22.064Z,7.33
2018-09-21T13:03:55.790Z,6.08
2018-09-21T13:06:23.281Z,6.40
2018-09-21T13:08:50.539Z,6.17
2018-09-21T13:11:17.844Z,5.53
2018-09-21T13:13:45.133Z,5.10
2018-09-21T13:16:12.441Z,7.58
2018-09-21T13:18:39.688Z,5.95
2018-09-21T13:21:06.974Z,7.53
2018-09-21T13:23:37.083Z,5.80
2018-09-21T13:26:04.366Z,5.85
2018-09-21T13:28:31.634Z,7.35
2018-09-21T13:30:58.957Z,4.92
2018-09-21T13:33:26.249Z,5.55
2018-09-21T13:35:53.532Z,5.58
2018-09-21T13:38:20.782Z,5.92
2018-09-21T13:40:48.090Z,6.47
2018-09-21T13:43:15.394Z,6.33
2018-09-21T13:45:42.686Z,6.33
2018-09-21T13:48:09.977Z,8.50
2018-09-21T13:50:37.237Z,5.28
2018-09-21T13:53:04.532Z,7.95
2018-09-21T13:55:31.784Z,4.80
2018-09-21T13:57:59.115Z,7.15
2018-09-21T14:00:26.348Z,7.75
2018-09-21T14:02:53.616Z,6.97
2018-09-21T14:05:20.946Z,5.50
2018-09-21T14:07:48.196Z,8.10
2018-09-21T14:10:15.449Z,8.03
2018-09-21T14:12:42.797Z,10.55
2018-09-21T14:15:10.054Z,11.22
2018-09-21T14:17:37.304Z,8.23
2018-09-21T14:20:04.609Z,6.22
2018-09-21T14:22:31.874Z,7.75
2018-09-21T14:24:59.141Z,6.87
2018-09-21T14:27:26.372Z,8.38
2018-09-21T14:29:53.599Z,7.28
2018-09-21T14:32:20.833Z,6.22
2018-09-21T14:34:48.142Z,10.55
2018-09-21T14:37:15.372Z,8.40
2018-09-21T14:39:42.625Z,7.25
2018-09-21T14:42:09.888Z,5.83
2018-09-21T14:44:37.168Z,6.40
2018-09-21T14:47:04.519Z,9.50
2018-09-21T14:49:31.765Z,6.33
2018-09-21T14:51:59.044Z,6.83
2018-09-21T14:54:26.415Z,8.73
2018-09-21T14:56:54.105Z,7.15
2018-09-21T14:59:21.403Z,9.05
2018-09-21T15:01:48.682Z,8.73
2018-09-21T15:04:15.964Z,6.83
2018-09-21T15:06:43.224Z,7.15
2018-09-21T15:09:11.005Z,6.58
2018-09-21T15:11:38.997Z,9.35
2018-09-21T15:14:06.311Z,8.05
2018-09-21T15:16:33.568Z,8.13
2018-09-21T15:19:00.756Z,12.55
2018-09-21T15:21:27.995Z,11.05
2018-09-21T15:23:55.327Z,9.58
2018-09-21T15:26:22.634Z,14.30
2018-09-21T15:28:49.901Z,12.82
2018-09-21T15:31:17.129Z,9.15
2018-09-21T15:33:44.328Z,10.93
2018-09-21T15:36:11.522Z,16.32
2018-09-21T15:38:38.831Z,13.15
2018-09-21T15:41:06.032Z,11.28
2018-09-21T15:43:33.475Z,10.18
2018-09-21T15:46:00.708Z,15.48
2018-09-21T15:48:28.068Z,17.48
2018-09-21T15:50:55.320Z,17.98
2018-09-21T15:53:22.576Z,13.70
2018-09-21T15:55:50.239Z,13.53
2018-09-21T15:58:21.900Z,14.78
2018-09-21T16:00:49.217Z,13.15
2018-09-21T16:03:16.498Z,16.17
2018-09-21T16:05:43.747Z,16.60
2018-09-21T16:08:10.968Z,16.10
2018-09-21T16:10:38.212Z,20.10
2018-09-21T16:13:05.465Z,18.80
2018-09-21T16:15:32.720Z,18.70
2018-09-21T16:18:00.154Z,21.30
2018-09-21T16:20:27.500Z,20.27
2018-09-21T16:22:54.835Z,21.62
2018-09-21T16:25:22.152Z,17.90
2018-09-21T16:27:49.409Z,19.40
2018-09-21T16:30:16.647Z,11.97
2018-09-21T16:32:43.955Z,8.53
2018-09-21T16:35:11.151Z,4.78
2018-09-21T16:37:38.427Z,3.33
2018-09-21T16:40:05.680Z,1.83
2018-09-21T16:42:33.007Z,1.97
2018-09-21T16:45:00.292Z,1.67
2018-09-21T16:47:27.552Z,3.40
2018-09-21T16:49:57.980Z,3.50
2018-09-21T16:52:25.268Z,1.40
2018-09-21T16:54:52.497Z,2.33
2018-09-21T16:57:19.726Z,1.40
2018-09-21T16:59:46.921Z,1.13
2018-09-21T17:02:14.204Z,1.30
2018-09-21T17:04:41.448Z,1.90
2018-09-21T17:07:08.697Z,1.10
2018-09-21T17:09:35.986Z,4.20
2018-09-21T17:12:03.177Z,1.53
2018-09-21T17:14:30.434Z,3.07
2018-09-21T17:16:57.704Z,3.00
2018-09-21T17:19:24.907Z,2.83
2018-09-21T17:21:52.180Z,3.07
2018-09-21T17:24:19.484Z,1.60
2018-09-21T17:26:46.771Z,3.20
2018-09-21T17:29:13.972Z,4.37
2018-09-21T17:31:41.259Z,3.03
2018-09-21T17:34:08.576Z,2.47
2018-09-21T17:36:35.854Z,2.97
2018-09-21T17:39:03.580Z,3.47
2018-09-21T17:41:30.836Z,3.40
2018-09-21T17:43:58.149Z,1.70
2018-09-21T17:46:25.397Z,2.83
2018-09-21T17:48:52.683Z,5.47
2018-09-21T17:51:19.901Z,2.60
2018-09-21T17:53:47.209Z,3.50
2018-09-21T17:56:14.560Z,2.53
2018-09-21T17:58:41.832Z,3.13
2018-09-21T18:01:09.117Z,2.10
2018-09-21T18:03:36.364Z,3.83
2018-09-21T18:06:03.640Z,1.87
2018-09-21T18:08:30.888Z,4.10
2018-09-21T18:10:58.183Z,3.10
2018-09-21T18:13:25.457Z,4.47
2018-09-21T18:15:53.118Z,2.17
2018-09-21T18:18:20.323Z,2.37
2018-09-21T18:20:47.825Z,2.53
2018-09-21T18:23:15.072Z,2.83
2018-09-21T18:25:42.459Z,4.30
2018-09-21T18:28:09.706Z,2.70
2018-09-21T18:30:37.084Z,1.27
2018-09-21T18:33:04.484Z,4.40
2018-09-21T18:35:31.804Z,4.07
2018-09-21T18:37:59.091Z,4.93
2018-09-21T18:40:26.370Z,4.40
2018-09-21T18:42:53.629Z,3.43
2018-09-21T18:45:20.914Z,5.57
2018-09-21T18:47:48.135Z,4.03
2018-09-21T18:50:15.408Z,2.03
2018-09-21T18:52:42.696Z,6.07
2018-09-21T18:55:09.955Z,2.93
2018-09-21T18:57:37.169Z,1.63
2018-09-21T19:00:04.807Z,5.97
2018-09-21T19:02:32.121Z,4.43
2018-09-21T19:04:59.364Z,3.53
2018-09-21T19:07:30.555Z,2.43
2018-09-21T19:09:58.369Z,2.37
2018-09-21T19:12:26.006Z,4.23
2018-09-21T19:14:53.259Z,2.73
2018-09-21T19:17:20.512Z,1.73
2018-09-21T19:19:47.730Z,5.97
2018-09-21T19:22:14.994Z,5.33
2018-09-21T19:24:42.456Z,5.90
2018-09-21T19:27:09.736Z,3.77
2018-09-21T19:29:37.038Z,3.40
2018-09-21T19:32:04.329Z,4.03
2018-09-21T19:34:31.589Z,5.13
2018-09-21T19:36:59.022Z,3.43
2018-09-21T19:39:26.374Z,4.90
2018-09-21T19:41:53.644Z,5.37
2018-09-21T19:44:20.952Z,4.90
2018-09-21T19:46:48.195Z,3.93
2018-09-21T19:49:15.409Z,4.10
2018-09-21T19:51:42.660Z,1.97
2018-09-21T19:54:09.920Z,3.97
2018-09-21T19:56:37.270Z,4.00
2018-09-21T19:59:04.682Z,4.97
2018-09-21T20:01:32.070Z,2.83
2018-09-21T20:03:59.320Z,5.93
2018-09-21T20:06:26.579Z,5.73
2018-09-21T20:08:53.931Z,4.00
2018-09-21T20:11:21.185Z,5.40
2018-09-21T20:13:48.471Z,5.80
2018-09-21T20:16:15.679Z,5.03
2018-09-21T20:18:43.060Z,4.33
2018-09-21T20:21:11.932Z,3.07
2018-09-21T20:23:39.763Z,5.70
2018-09-21T20:26:07.207Z,3.23
2018-09-21T20:28:34.562Z,5.17
2018-09-21T20:31:07.660Z,4.80
2018-09-21T20:33:36.719Z,3.50
2018-09-21T20:36:04.213Z,7.50
2018-09-21T20:38:31.519Z,4.93
2018-09-21T20:40:58.843Z,4.77
2018-09-21T20:43:27.156Z,4.20
2018-09-21T20:45:54.964Z,8.50
2018-09-21T20:48:23.465Z,6.40
2018-09-21T20:50:50.780Z,4.60
2018-09-21T20:53:18.092Z,6.70
2018-09-21T20:55:45.351Z,9.70
2018-09-21T20:58:12.590Z,4.20
2018-09-21T21:00:39.934Z,5.70
2018-09-21T21:03:07.201Z,9.43
2018-09-21T21:05:34.493Z,8.83
2018-09-21T21:08:01.825Z,5.23
2018-09-21T21:10:29.350Z,7.00
2018-09-21T21:12:56.664Z,6.13
2018-09-21T21:15:23.973Z,6.33
2018-09-21T21:17:51.270Z,7.33
2018-09-21T21:20:18.597Z,7.43
2018-09-21T21:22:45.992Z,6.33
2018-09-21T21:25:13.285Z,5.90
2018-09-21T21:27:40.559Z,6.00
2018-09-21T21:30:07.866Z,9.53
2018-09-21T21:32:35.221Z,7.40
2018-09-21T21:35:02.488Z,8.23
2018-09-21T21:37:30.147Z,10.63
2018-09-21T21:39:57.420Z,7.07
2018-09-21T21:42:24.952Z,6.80
2018-09-21T21:44:52.228Z,8.90
2018-09-21T21:47:19.705Z,7.33
2018-09-21T21:49:46.985Z,9.40
2018-09-21T21:52:14.220Z,11.13
2018-09-21T21:54:41.449Z,7.47
2018-09-21T21:57:08.748Z,7.50
2018-09-21T21:59:35.985Z,7.47
2018-09-21T22:02:03.282Z,7.07
2018-09-21T22:04:30.697Z,7.57
2018-09-21T22:06:57.986Z,7.80
2018-09-21T22:09:25.164Z,8.73
2018-09-21T22:11:58.114Z,7.43
2018-09-21T22:14:25.364Z,9.63
2018-09-21T22:16:52.631Z,8.97
2018-09-21T22:19:19.874Z,10.40
2018-09-21T22:21:47.127Z,11.83
2018-09-21T22:24:14.369Z,8.70
2018-09-21T22:26:41.635Z,7.40
2018-09-21T22:29:08.860Z,10.33
2018-09-21T22:31:36.097Z,14.13
2018-09-21T22:34:03.392Z,10.23
2018-09-21T22:36:30.744Z,12.40
2018-09-21T22:38:57.965Z,10.67
2018-09-21T22:41:25.214Z,12.73
2018-09-21T22:43:52.477Z,10.23
2018-09-21T22:46:19.712Z,5.50
2018-09-21T22:48:47.696Z,7.50
2018-09-21T22:51:15.671Z,8.17
2018-09-21T22:53:42.923Z,6.67
2018-09-21T22:56:10.288Z,5.93
2018-09-21T22:58:38.423Z,5.37
2018-09-21T23:01:06.000Z,7.73
2018-09-21T23:03:33.316Z,8.60
2018-09-21T23:06:00.642Z,7.67
2018-09-21T23:08:28.098Z,4.50
2018-09-21T23:10:55.399Z,5.93
2018-09-21T23:13:22.922Z,4.73
2018-09-21T23:15:50.519Z,6.90
2018-09-21T23:18:17.816Z,5.23
2018-09-21T23:20:45.090Z,5.60
2018-09-21T23:23:12.257Z,9.53
2018-09-21T23:25:39.625Z,5.40
2018-09-21T23:28:07.396Z,6.37
2018-09-21T23:30:34.684Z,4.87
2018-09-21T23:33:01.984Z,5.07
2018-09-21T23:35:29.395Z,4.33
2018-09-21T23:37:56.633Z,6.13
2018-09-21T23:40:23.892Z,4.53
2018-09-21T23:42:51.192Z,6.03
2018-09-21T23:45:18.452Z,3.63
2018-09-21T23:47:45.805Z,6.83
2018-09-21T23:50:13.048Z,7.30
2018-09-21T23:52:40.217Z,6.60
2018-09-21T23:55:07.431Z,7.03
2018-09-21T23:57:34.706Z,5.53
